sensor_id;sensor_type;location;lat;lon;timestamp;P1;durP1;ratioP1;P2;durP2;ratioP2
30697;SDS011;17448;47.200;10.902;2023-02-28T00:00:19;11.23;;;7.65;;
30697;SDS011;17448;47.200;10.902;2023-02-28T00:02:46;10.60;;;7.90;;
30697;SDS011;17448;47.200;10.902;2023-02-28T00:05:13;12.07;;;8.25;;
30697;SDS011;17448;47.200;10.902;2023-02-28T00:07:39;14.02;;;8.60;;
30697;SDS011;17448;47.200;10.902;2023-02-28T00:10:06;12.43;;;7.95;;
30697;SDS011;17448;47.200;10.902;2023-02-28T00:12:33;10.43;;;7.43;;
30697;SDS011;17448;47.200;10.902;2023-02-28T00:14:59;13.13;;;8.52;;
30697;SDS011;17448;47.200;10.902;2023-02-28T00:17:25;11.02;;;7.85;;
30697;SDS011;17448;47.200;10.902;2023-02-28T00:19:51;10.57;;;8.32;;
30697;SDS011;17448;47.200;10.902;2023-02-28T00:22:18;13.93;;;8.18;;
30697;SDS011;17448;47.200;10.902;2023-02-28T00:24:45;10.70;;;8.23;;
30697;SDS011;17448;47.200;10.902;2023-02-28T00:27:11;12.52;;;8.27;;
30697;SDS011;17448;47.200;10.902;2023-02-28T00:29:37;11.32;;;7.63;;
30697;SDS011;17448;47.200;10.902;2023-02-28T00:32:04;11.82;;;7.93;;
30697;SDS011;17448;47.200;10.902;2023-02-28T00:34:30;11.38;;;8.05;;
30697;SDS011;17448;47.200;10.902;2023-02-28T00:36:57;10.52;;;7.85;;
30697;SDS011;17448;47.200;10.902;2023-02-28T00:39:23;11.70;;;7.93;;
30697;SDS011;17448;47.200;10.902;2023-02-28T00:41:50;14.05;;;9.15;;
30697;SDS011;17448;47.200;10.902;2023-02-28T00:44:16;12.48;;;8.00;;
30697;SDS011;17448;47.200;10.902;2023-02-28T00:46:42;13.63;;;8.90;;
30697;SDS011;17448;47.200;10.902;2023-02-28T00:49:08;11.38;;;8.02;;
30697;SDS011;17448;47.200;10.902;2023-02-28T00:51:34;11.48;;;8.48;;
30697;SDS011;17448;47.200;10.902;2023-02-28T00:54:01;16.90;;;9.38;;
30697;SDS011;17448;47.200;10.902;2023-02-28T00:56:27;14.23;;;9.43;;
30697;SDS011;17448;47.200;10.902;2023-02-28T00:58:53;15.05;;;8.93;;
30697;SDS011;17448;47.200;10.902;2023-02-28T01:01:19;12.00;;;8.00;;
30697;SDS011;17448;47.200;10.902;2023-02-28T01:03:45;13.95;;;9.00;;
30697;SDS011;17448;47.200;10.902;2023-02-28T01:06:12;14.43;;;9.45;;
30697;SDS011;17448;47.200;10.902;2023-02-28T01:08:39;18.67;;;9.45;;
30697;SDS011;17448;47.200;10.902;2023-02-28T01:11:09;13.65;;;9.05;;
30697;SDS011;17448;47.200;10.902;2023-02-28T01:13:38;15.02;;;8.60;;
30697;SDS011;17448;47.200;10.902;2023-02-28T01:16:05;13.27;;;9.15;;
30697;SDS011;17448;47.200;10.902;2023-02-28T01:18:31;13.27;;;8.38;;
30697;SDS011;17448;47.200;10.902;2023-02-28T01:20:57;17.05;;;9.60;;
30697;SDS011;17448;47.200;10.902;2023-02-28T01:23:23;16.38;;;9.73;;
30697;SDS011;17448;47.200;10.902;2023-02-28T01:25:50;11.43;;;8.50;;
30697;SDS011;17448;47.200;10.902;2023-02-28T01:28:16;11.68;;;8.65;;
30697;SDS011;17448;47.200;10.902;2023-02-28T01:30:42;13.25;;;9.18;;
30697;SDS011;17448;47.200;10.902;2023-02-28T01:33:08;13.68;;;8.57;;
30697;SDS011;17448;47.200;10.902;2023-02-28T01:35:35;14.80;;;9.25;;
30697;SDS011;17448;47.200;10.902;2023-02-28T01:38:02;16.10;;;8.98;;
30697;SDS011;17448;47.200;10.902;2023-02-28T01:40:28;15.27;;;9.32;;
30697;SDS011;17448;47.200;10.902;2023-02-28T01:42:54;15.60;;;9.30;;
30697;SDS011;17448;47.200;10.902;2023-02-28T01:45:28;14.02;;;9.23;;
30697;SDS011;17448;47.200;10.902;2023-02-28T01:47:59;14.13;;;9.15;;
30697;SDS011;17448;47.200;10.902;2023-02-28T01:50:27;14.88;;;9.13;;
30697;SDS011;17448;47.200;10.902;2023-02-28T01:52:57;14.57;;;9.45;;
30697;SDS011;17448;47.200;10.902;2023-02-28T01:55:26;15.45;;;9.98;;
30697;SDS011;17448;47.200;10.902;2023-02-28T01:57:57;14.77;;;9.27;;
30697;SDS011;17448;47.200;10.902;2023-02-28T02:00:25;14.45;;;10.50;;
30697;SDS011;17448;47.200;10.902;2023-02-28T02:02:55;14.70;;;9.55;;
30697;SDS011;17448;47.200;10.902;2023-02-28T02:05:26;17.00;;;9.13;;
30697;SDS011;17448;47.200;10.902;2023-02-28T02:08:12;14.52;;;9.80;;
30697;SDS011;17448;47.200;10.902;2023-02-28T02:15:36;16.02;;;9.85;;
30697;SDS011;17448;47.200;10.902;2023-02-28T02:21:05;15.57;;;9.52;;
30697;SDS011;17448;47.200;10.902;2023-02-28T02:26:32;14.50;;;9.40;;
30697;SDS011;17448;47.200;10.902;2023-02-28T02:32:14;18.02;;;10.45;;
30697;SDS011;17448;47.200;10.902;2023-02-28T02:40:58;14.13;;;9.52;;
30697;SDS011;17448;47.200;10.902;2023-02-28T02:43:11;18.25;;;10.18;;
30697;SDS011;17448;47.200;10.902;2023-02-28T02:45:40;16.15;;;9.45;;
30697;SDS011;17448;47.200;10.902;2023-02-28T02:48:09;14.63;;;10.20;;
30697;SDS011;17448;47.200;10.902;2023-02-28T02:50:39;16.02;;;9.05;;
30697;SDS011;17448;47.200;10.902;2023-02-28T02:53:06;15.10;;;9.25;;
30697;SDS011;17448;47.200;10.902;2023-02-28T02:55:34;16.10;;;10.75;;
30697;SDS011;17448;47.200;10.902;2023-02-28T02:58:02;16.92;;;9.80;;
30697;SDS011;17448;47.200;10.902;2023-02-28T03:00:37;16.05;;;9.82;;
30697;SDS011;17448;47.200;10.902;2023-02-28T03:03:04;15.57;;;9.73;;
30697;SDS011;17448;47.200;10.902;2023-02-28T03:05:33;15.70;;;9.45;;
30697;SDS011;17448;47.200;10.902;2023-02-28T03:08:02;14.18;;;9.25;;
30697;SDS011;17448;47.200;10.902;2023-02-28T03:10:32;15.55;;;10.18;;
30697;SDS011;17448;47.200;10.902;2023-02-28T03:13:11;15.30;;;9.73;;
30697;SDS011;17448;47.200;10.902;2023-02-28T03:15:50;19.70;;;10.65;;
30697;SDS011;17448;47.200;10.902;2023-02-28T03:23:39;16.35;;;9.55;;
30697;SDS011;17448;47.200;10.902;2023-02-28T03:26:13;12.88;;;8.75;;
30697;SDS011;17448;47.200;10.902;2023-02-28T03:28:49;15.43;;;9.68;;
30697;SDS011;17448;47.200;10.902;2023-02-28T03:31:20;16.58;;;10.32;;
30697;SDS011;17448;47.200;10.902;2023-02-28T03:33:49;16.63;;;9.27;;
30697;SDS011;17448;47.200;10.902;2023-02-28T03:36:21;13.13;;;9.63;;
30697;SDS011;17448;47.200;10.902;2023-02-28T03:38:54;14.13;;;9.35;;
30697;SDS011;17448;47.200;10.902;2023-02-28T03:41:31;15.68;;;9.93;;
30697;SDS011;17448;47.200;10.902;2023-02-28T03:44:12;13.68;;;9.13;;
30697;SDS011;17448;47.200;10.902;2023-02-28T03:46:41;16.08;;;10.02;;
30697;SDS011;17448;47.200;10.902;2023-02-28T03:49:23;16.48;;;10.52;;
30697;SDS011;17448;47.200;10.902;2023-02-28T03:51:50;17.92;;;10.27;;
30697;SDS011;17448;47.200;10.902;2023-02-28T03:54:19;15.50;;;10.00;;
30697;SDS011;17448;47.200;10.902;2023-02-28T03:59:33;13.88;;;8.85;;
30697;SDS011;17448;47.200;10.902;2023-02-28T04:02:03;18.17;;;10.27;;
30697;SDS011;17448;47.200;10.902;2023-02-28T04:04:29;15.55;;;9.18;;
30697;SDS011;17448;47.200;10.902;2023-02-28T04:07:06;14.93;;;9.20;;
30697;SDS011;17448;47.200;10.902;2023-02-28T04:09:32;16.75;;;9.82;;
30697;SDS011;17448;47.200;10.902;2023-02-28T04:11:58;16.63;;;10.02;;
30697;SDS011;17448;47.200;10.902;2023-02-28T04:14:25;20.70;;;9.73;;
30697;SDS011;17448;47.200;10.902;2023-02-28T04:16:51;13.98;;;9.32;;
30697;SDS011;17448;47.200;10.902;2023-02-28T04:19:18;18.75;;;10.80;;
30697;SDS011;17448;47.200;10.902;2023-02-28T04:21:45;16.10;;;9.27;;
30697;SDS011;17448;47.200;10.902;2023-02-28T04:24:12;17.80;;;10.43;;
30697;SDS011;17448;47.200;10.902;2023-02-28T04:26:40;15.73;;;10.85;;
30697;SDS011;17448;47.200;10.902;2023-02-28T04:29:09;17.13;;;9.55;;
30697;SDS011;17448;47.200;10.902;2023-02-28T04:31:35;14.18;;;9.80;;
30697;SDS011;17448;47.200;10.902;2023-02-28T04:34:01;19.88;;;10.30;;
30697;SDS011;17448;47.200;10.902;2023-02-28T04:36:28;18.23;;;11.05;;
30697;SDS011;17448;47.200;10.902;2023-02-28T04:38:54;13.98;;;9.98;;
30697;SDS011;17448;47.200;10.902;2023-02-28T04:41:20;16.33;;;10.43;;
30697;SDS011;17448;47.200;10.902;2023-02-28T04:43:47;15.13;;;9.13;;
30697;SDS011;17448;47.200;10.902;2023-02-28T04:46:14;16.90;;;9.73;;
30697;SDS011;17448;47.200;10.902;2023-02-28T04:48:40;16.70;;;9.43;;
30697;SDS011;17448;47.200;10.902;2023-02-28T04:51:08;16.67;;;9.70;;
30697;SDS011;17448;47.200;10.902;2023-02-28T04:53:35;19.48;;;10.52;;
30697;SDS011;17448;47.200;10.902;2023-02-28T04:56:01;18.13;;;9.20;;
30697;SDS011;17448;47.200;10.902;2023-02-28T04:58:27;19.45;;;10.55;;
30697;SDS011;17448;47.200;10.902;2023-02-28T05:00:59;17.23;;;9.77;;
30697;SDS011;17448;47.200;10.902;2023-02-28T05:03:27;18.40;;;11.18;;
30697;SDS011;17448;47.200;10.902;2023-02-28T05:05:53;15.15;;;9.88;;
30697;SDS011;17448;47.200;10.902;2023-02-28T05:08:19;16.15;;;9.88;;
30697;SDS011;17448;47.200;10.902;2023-02-28T05:10:45;17.98;;;9.90;;
30697;SDS011;17448;47.200;10.902;2023-02-28T05:13:12;15.70;;;10.02;;
30697;SDS011;17448;47.200;10.902;2023-02-28T05:15:38;18.60;;;9.13;;
30697;SDS011;17448;47.200;10.902;2023-02-28T05:18:04;16.50;;;9.77;;
30697;SDS011;17448;47.200;10.902;2023-02-28T05:20:30;17.08;;;9.95;;
30697;SDS011;17448;47.200;10.902;2023-02-28T05:22:57;24.88;;;10.25;;
30697;SDS011;17448;47.200;10.902;2023-02-28T05:25:24;17.90;;;10.05;;
30697;SDS011;17448;47.200;10.902;2023-02-28T05:27:50;25.15;;;10.88;;
30697;SDS011;17448;47.200;10.902;2023-02-28T05:30:16;16.33;;;11.05;;
30697;SDS011;17448;47.200;10.902;2023-02-28T05:32:42;13.15;;;9.00;;
30697;SDS011;17448;47.200;10.902;2023-02-28T05:35:11;20.75;;;9.93;;
30697;SDS011;17448;47.200;10.902;2023-02-28T05:37:38;19.30;;;10.57;;
30697;SDS011;17448;47.200;10.902;2023-02-28T05:40:05;17.08;;;10.85;;
30697;SDS011;17448;47.200;10.902;2023-02-28T05:42:32;22.23;;;9.40;;
30697;SDS011;17448;47.200;10.902;2023-02-28T05:44:58;21.23;;;9.70;;
30697;SDS011;17448;47.200;10.902;2023-02-28T05:47:24;21.40;;;8.93;;
30697;SDS011;17448;47.200;10.902;2023-02-28T05:49:50;16.05;;;9.13;;
30697;SDS011;17448;47.200;10.902;2023-02-28T05:52:17;14.98;;;9.10;;
30697;SDS011;17448;47.200;10.902;2023-02-28T05:54:43;19.38;;;9.65;;
30697;SDS011;17448;47.200;10.902;2023-02-28T05:57:09;15.98;;;10.05;;
30697;SDS011;17448;47.200;10.902;2023-02-28T05:59:35;16.45;;;9.70;;
30697;SDS011;17448;47.200;10.902;2023-02-28T06:02:04;22.45;;;9.93;;
30697;SDS011;17448;47.200;10.902;2023-02-28T06:04:31;17.48;;;9.65;;
30697;SDS011;17448;47.200;10.902;2023-02-28T06:06:57;18.55;;;9.82;;
30697;SDS011;17448;47.200;10.902;2023-02-28T06:09:23;18.60;;;10.10;;
30697;SDS011;17448;47.200;10.902;2023-02-28T06:11:50;21.42;;;10.07;;
30697;SDS011;17448;47.200;10.902;2023-02-28T06:14:16;16.70;;;10.10;;
30697;SDS011;17448;47.200;10.902;2023-02-28T06:16:43;15.55;;;9.50;;
30697;SDS011;17448;47.200;10.902;2023-02-28T06:19:09;18.27;;;10.30;;
30697;SDS011;17448;47.200;10.902;2023-02-28T06:21:36;15.40;;;9.68;;
30697;SDS011;17448;47.200;10.902;2023-02-28T06:24:02;17.67;;;9.73;;
30697;SDS011;17448;47.200;10.902;2023-02-28T06:26:29;15.93;;;9.48;;
30697;SDS011;17448;47.200;10.902;2023-02-28T06:28:55;15.93;;;9.73;;
30697;SDS011;17448;47.200;10.902;2023-02-28T06:31:21;18.73;;;9.95;;
30697;SDS011;17448;47.200;10.902;2023-02-28T06:33:48;19.00;;;10.20;;
30697;SDS011;17448;47.200;10.902;2023-02-28T06:36:15;19.70;;;10.63;;
30697;SDS011;17448;47.200;10.902;2023-02-28T06:38:42;17.67;;;10.57;;
30697;SDS011;17448;47.200;10.902;2023-02-28T06:41:08;18.08;;;10.55;;
30697;SDS011;17448;47.200;10.902;2023-02-28T06:43:37;18.42;;;10.18;;
30697;SDS011;17448;47.200;10.902;2023-02-28T06:46:04;16.15;;;9.77;;
30697;SDS011;17448;47.200;10.902;2023-02-28T06:48:30;17.83;;;10.48;;
30697;SDS011;17448;47.200;10.902;2023-02-28T06:51:10;19.73;;;10.00;;
30697;SDS011;17448;47.200;10.902;2023-02-28T06:53:38;21.65;;;10.07;;
30697;SDS011;17448;47.200;10.902;2023-02-28T06:56:05;19.20;;;10.15;;
30697;SDS011;17448;47.200;10.902;2023-02-28T06:58:31;17.08;;;9.32;;
30697;SDS011;17448;47.200;10.902;2023-02-28T07:00:57;18.35;;;11.07;;
30697;SDS011;17448;47.200;10.902;2023-02-28T07:03:24;23.02;;;10.82;;
30697;SDS011;17448;47.200;10.902;2023-02-28T07:05:50;28.25;;;10.75;;
30697;SDS011;17448;47.200;10.902;2023-02-28T07:08:16;18.20;;;10.45;;
30697;SDS011;17448;47.200;10.902;2023-02-28T07:10:42;20.98;;;10.98;;
30697;SDS011;17448;47.200;10.902;2023-02-28T07:13:09;22.35;;;10.77;;
30697;SDS011;17448;47.200;10.902;2023-02-28T07:15:38;19.15;;;11.18;;
30697;SDS011;17448;47.200;10.902;2023-02-28T07:18:04;18.33;;;11.68;;
30697;SDS011;17448;47.200;10.902;2023-02-28T07:20:30;23.95;;;12.35;;
30697;SDS011;17448;47.200;10.902;2023-02-28T07:22:57;23.55;;;12.25;;
30697;SDS011;17448;47.200;10.902;2023-02-28T07:25:23;25.70;;;12.70;;
30697;SDS011;17448;47.200;10.902;2023-02-28T07:27:50;24.38;;;13.38;;
30697;SDS011;17448;47.200;10.902;2023-02-28T07:30:16;25.02;;;12.18;;
30697;SDS011;17448;47.200;10.902;2023-02-28T07:32:43;23.33;;;10.88;;
30697;SDS011;17448;47.200;10.902;2023-02-28T07:35:09;26.02;;;12.00;;
30697;SDS011;17448;47.200;10.902;2023-02-28T07:37:35;18.02;;;10.07;;
30697;SDS011;17448;47.200;10.902;2023-02-28T07:40:04;24.00;;;12.88;;
30697;SDS011;17448;47.200;10.902;2023-02-28T07:42:34;27.95;;;13.73;;
30697;SDS011;17448;47.200;10.902;2023-02-28T07:45:03;28.27;;;14.57;;
30697;SDS011;17448;47.200;10.902;2023-02-28T07:47:29;31.42;;;16.02;;
30697;SDS011;17448;47.200;10.902;2023-02-28T07:49:56;36.50;;;15.68;;
30697;SDS011;17448;47.200;10.902;2023-02-28T07:52:22;30.00;;;14.73;;
30697;SDS011;17448;47.200;10.902;2023-02-28T07:54:51;28.67;;;14.68;;
30697;SDS011;17448;47.200;10.902;2023-02-28T07:57:18;23.50;;;14.00;;
30697;SDS011;17448;47.200;10.902;2023-02-28T07:59:44;34.60;;;15.48;;
30697;SDS011;17448;47.200;10.902;2023-02-28T08:02:13;34.40;;;15.43;;
30697;SDS011;17448;47.200;10.902;2023-02-28T08:04:40;27.38;;;14.32;;
30697;SDS011;17448;47.200;10.902;2023-02-28T08:07:06;26.60;;;13.73;;
30697;SDS011;17448;47.200;10.902;2023-02-28T08:09:33;28.20;;;14.48;;
30697;SDS011;17448;47.200;10.902;2023-02-28T08:11:59;31.20;;;15.07;;
30697;SDS011;17448;47.200;10.902;2023-02-28T08:14:25;27.00;;;13.40;;
30697;SDS011;17448;47.200;10.902;2023-02-28T08:16:52;31.73;;;14.18;;
30697;SDS011;17448;47.200;10.902;2023-02-28T08:19:18;36.80;;;15.20;;
30697;SDS011;17448;47.200;10.902;2023-02-28T08:21:44;32.70;;;14.10;;
30697;SDS011;17448;47.200;10.902;2023-02-28T08:24:10;28.67;;;13.23;;
30697;SDS011;17448;47.200;10.902;2023-02-28T08:26:36;27.00;;;13.60;;
30697;SDS011;17448;47.200;10.902;2023-02-28T08:29:02;27.48;;;12.93;;
30697;SDS011;17448;47.200;10.902;2023-02-28T08:31:28;25.60;;;13.10;;
30697;SDS011;17448;47.200;10.902;2023-02-28T08:33:54;30.33;;;13.57;;
30697;SDS011;17448;47.200;10.902;2023-02-28T08:36:23;26.25;;;14.30;;
30697;SDS011;17448;47.200;10.902;2023-02-28T08:38:50;35.85;;;15.82;;
30697;SDS011;17448;47.200;10.902;2023-02-28T08:41:16;25.67;;;14.43;;
30697;SDS011;17448;47.200;10.902;2023-02-28T08:43:42;25.13;;;13.93;;
30697;SDS011;17448;47.200;10.902;2023-02-28T08:46:10;26.83;;;13.95;;
30697;SDS011;17448;47.200;10.902;2023-02-28T08:48:36;23.90;;;13.38;;
30697;SDS011;17448;47.200;10.902;2023-02-28T08:51:07;20.88;;;11.55;;
30697;SDS011;17448;47.200;10.902;2023-02-28T08:53:37;17.27;;;10.77;;
30697;SDS011;17448;47.200;10.902;2023-02-28T08:56:11;18.50;;;10.35;;
30697;SDS011;17448;47.200;10.902;2023-02-28T08:58:38;21.05;;;10.48;;
30697;SDS011;17448;47.200;10.902;2023-02-28T09:01:11;17.25;;;10.43;;
30697;SDS011;17448;47.200;10.902;2023-02-28T09:03:38;12.85;;;8.05;;
30697;SDS011;17448;47.200;10.902;2023-02-28T09:06:05;12.07;;;7.97;;
30697;SDS011;17448;47.200;10.902;2023-02-28T09:08:32;12.50;;;8.10;;
30697;SDS011;17448;47.200;10.902;2023-02-28T09:10:58;13.50;;;8.90;;
30697;SDS011;17448;47.200;10.902;2023-02-28T09:13:25;15.93;;;9.38;;
30697;SDS011;17448;47.200;10.902;2023-02-28T09:15:52;16.35;;;9.00;;
30697;SDS011;17448;47.200;10.902;2023-02-28T09:18:18;15.98;;;8.27;;
30697;SDS011;17448;47.200;10.902;2023-02-28T09:20:45;22.27;;;9.40;;
30697;SDS011;17448;47.200;10.902;2023-02-28T09:23:11;13.93;;;8.55;;
30697;SDS011;17448;47.200;10.902;2023-02-28T09:25:45;17.23;;;8.70;;
30697;SDS011;17448;47.200;10.902;2023-02-28T09:28:11;14.43;;;7.53;;
30697;SDS011;17448;47.200;10.902;2023-02-28T09:30:39;13.52;;;8.73;;
30697;SDS011;17448;47.200;10.902;2023-02-28T09:33:05;13.35;;;8.63;;
30697;SDS011;17448;47.200;10.902;2023-02-28T09:35:31;15.10;;;9.55;;
30697;SDS011;17448;47.200;10.902;2023-02-28T09:37:57;12.90;;;8.38;;
30697;SDS011;17448;47.200;10.902;2023-02-28T09:40:24;13.63;;;8.60;;
30697;SDS011;17448;47.200;10.902;2023-02-28T09:42:52;19.05;;;9.23;;
30697;SDS011;17448;47.200;10.902;2023-02-28T09:47:45;15.18;;;8.27;;
30697;SDS011;17448;47.200;10.902;2023-02-28T09:52:51;13.88;;;8.32;;
30697;SDS011;17448;47.200;10.902;2023-02-28T09:55:20;16.23;;;7.78;;
30697;SDS011;17448;47.200;10.902;2023-02-28T09:57:48;12.63;;;7.57;;
30697;SDS011;17448;47.200;10.902;2023-02-28T10:00:20;11.93;;;7.35;;
30697;SDS011;17448;47.200;10.902;2023-02-28T10:02:52;14.63;;;7.82;;
30697;SDS011;17448;47.200;10.902;2023-02-28T10:05:49;14.57;;;8.50;;
30697;SDS011;17448;47.200;10.902;2023-02-28T10:10:40;13.88;;;8.00;;
30697;SDS011;17448;47.200;10.902;2023-02-28T10:15:39;10.50;;;7.97;;
30697;SDS011;17448;47.200;10.902;2023-02-28T10:20:52;14.88;;;6.90;;
30697;SDS011;17448;47.200;10.902;2023-02-28T10:28:45;11.60;;;6.95;;
30697;SDS011;17448;47.200;10.902;2023-02-28T10:31:14;9.38;;;5.95;;
30697;SDS011;17448;47.200;10.902;2023-02-28T13:17:39;6.68;;;3.30;;
30697;SDS011;17448;47.200;10.902;2023-02-28T13:20:39;4.40;;;3.10;;
30697;SDS011;17448;47.200;10.902;2023-02-28T13:23:56;5.50;;;2.97;;
30697;SDS011;17448;47.200;10.902;2023-02-28T13:34:04;3.88;;;3.20;;
30697;SDS011;17448;47.200;10.902;2023-02-28T14:31:02;4.73;;;1.97;;
30697;SDS011;17448;47.200;10.902;2023-02-28T14:33:42;11.63;;;3.85;;
30697;SDS011;17448;47.200;10.902;2023-02-28T14:36:23;3.53;;;2.45;;
30697;SDS011;17448;47.200;10.902;2023-02-28T14:38:52;9.77;;;3.67;;
30697;SDS011;17448;47.200;10.902;2023-02-28T14:46:14;18.83;;;3.60;;
30697;SDS011;17448;47.200;10.902;2023-02-28T14:48:44;10.50;;;2.95;;
30697;SDS011;17448;47.200;10.902;2023-02-28T15:03:20;8.23;;;3.22;;
30697;SDS011;17448;47.200;10.902;2023-02-28T15:05:59;13.35;;;3.10;;
30697;SDS011;17448;47.200;10.902;2023-02-28T15:08:25;4.70;;;2.70;;
30697;SDS011;17448;47.200;10.902;2023-02-28T15:11:07;5.97;;;3.22;;
30697;SDS011;17448;47.200;10.902;2023-02-28T15:13:38;15.05;;;2.85;;
30697;SDS011;17448;47.200;10.902;2023-02-28T15:19:14;16.45;;;3.47;;
30697;SDS011;17448;47.200;10.902;2023-02-28T15:21:34;6.78;;;4.10;;
30697;SDS011;17448;47.200;10.902;2023-02-28T15:26:29;18.98;;;3.42;;
30697;SDS011;17448;47.200;10.902;2023-02-28T15:28:59;13.80;;;3.80;;
30697;SDS011;17448;47.200;10.902;2023-02-28T15:31:29;13.05;;;3.30;;
30697;SDS011;17448;47.200;10.902;2023-02-28T15:33:58;10.95;;;2.55;;
30697;SDS011;17448;47.200;10.902;2023-02-28T15:48:52;22.13;;;4.20;;
30697;SDS011;17448;47.200;10.902;2023-02-28T15:59:49;27.93;;;8.33;;
30697;SDS011;17448;47.200;10.902;2023-02-28T16:08:17;23.83;;;5.35;;
30697;SDS011;17448;47.200;10.902;2023-02-28T16:10:44;19.58;;;4.57;;
30697;SDS011;17448;47.200;10.902;2023-02-28T16:13:11;24.95;;;4.70;;
30697;SDS011;17448;47.200;10.902;2023-02-28T16:15:41;9.70;;;3.83;;
30697;SDS011;17448;47.200;10.902;2023-02-28T16:18:08;19.15;;;4.07;;
30697;SDS011;17448;47.200;10.902;2023-02-28T16:20:36;11.57;;;3.30;;
30697;SDS011;17448;47.200;10.902;2023-02-28T16:23:02;16.00;;;4.22;;
30697;SDS011;17448;47.200;10.902;2023-02-28T16:25:35;14.20;;;4.28;;
30697;SDS011;17448;47.200;10.902;2023-02-28T16:28:02;8.68;;;3.13;;
30697;SDS011;17448;47.200;10.902;2023-02-28T16:30:28;7.40;;;2.72;;
30697;SDS011;17448;47.200;10.902;2023-02-28T16:32:56;9.13;;;2.85;;
30697;SDS011;17448;47.200;10.902;2023-02-28T16:35:22;5.55;;;4.18;;
30697;SDS011;17448;47.200;10.902;2023-02-28T16:37:50;5.85;;;2.63;;
30697;SDS011;17448;47.200;10.902;2023-02-28T16:40:18;10.07;;;3.20;;
30697;SDS011;17448;47.200;10.902;2023-02-28T16:42:46;3.13;;;2.45;;
30697;SDS011;17448;47.200;10.902;2023-02-28T16:45:17;4.28;;;2.65;;
30697;SDS011;17448;47.200;10.902;2023-02-28T16:47:44;5.82;;;2.88;;
30697;SDS011;17448;47.200;10.902;2023-02-28T16:50:18;8.02;;;2.85;;
30697;SDS011;17448;47.200;10.902;2023-02-28T16:52:45;7.43;;;3.10;;
30697;SDS011;17448;47.200;10.902;2023-02-28T16:55:12;7.35;;;3.05;;
30697;SDS011;17448;47.200;10.902;2023-02-28T16:57:38;6.05;;;3.20;;
30697;SDS011;17448;47.200;10.902;2023-02-28T17:00:06;11.82;;;3.95;;
30697;SDS011;17448;47.200;10.902;2023-02-28T17:02:33;18.70;;;4.95;;
30697;SDS011;17448;47.200;10.902;2023-02-28T17:04:59;6.95;;;2.92;;
30697;SDS011;17448;47.200;10.902;2023-02-28T17:07:28;12.15;;;4.18;;
30697;SDS011;17448;47.200;10.902;2023-02-28T17:09:54;5.82;;;3.17;;
30697;SDS011;17448;47.200;10.902;2023-02-28T17:12:20;6.90;;;3.95;;
30697;SDS011;17448;47.200;10.902;2023-02-28T17:14:47;16.65;;;5.22;;
30697;SDS011;17448;47.200;10.902;2023-02-28T17:17:22;14.50;;;5.80;;
30697;SDS011;17448;47.200;10.902;2023-02-28T17:19:48;10.40;;;5.10;;
30697;SDS011;17448;47.200;10.902;2023-02-28T17:22:14;14.05;;;5.93;;
30697;SDS011;17448;47.200;10.902;2023-02-28T17:24:41;15.23;;;6.72;;
30697;SDS011;17448;47.200;10.902;2023-02-28T17:27:09;10.23;;;5.97;;
30697;SDS011;17448;47.200;10.902;2023-02-28T17:29:35;8.77;;;5.43;;
30697;SDS011;17448;47.200;10.902;2023-02-28T17:32:02;7.85;;;5.85;;
30697;SDS011;17448;47.200;10.902;2023-02-28T17:34:28;12.18;;;6.82;;
30697;SDS011;17448;47.200;10.902;2023-02-28T17:36:54;13.10;;;7.63;;
30697;SDS011;17448;47.200;10.902;2023-02-28T17:39:20;12.02;;;6.65;;
30697;SDS011;17448;47.200;10.902;2023-02-28T17:41:54;13.10;;;7.32;;
30697;SDS011;17448;47.200;10.902;2023-02-28T17:44:20;10.15;;;6.10;;
30697;SDS011;17448;47.200;10.902;2023-02-28T17:46:47;7.25;;;4.60;;
30697;SDS011;17448;47.200;10.902;2023-02-28T17:49:14;9.30;;;5.53;;
30697;SDS011;17448;47.200;10.902;2023-02-28T17:51:40;10.80;;;6.07;;
30697;SDS011;17448;47.200;10.902;2023-02-28T17:54:07;8.57;;;5.00;;
30697;SDS011;17448;47.200;10.902;2023-02-28T17:56:33;10.45;;;5.85;;
30697;SDS011;17448;47.200;10.902;2023-02-28T17:58:59;10.57;;;6.22;;
30697;SDS011;17448;47.200;10.902;2023-02-28T18:01:25;10.82;;;6.10;;
30697;SDS011;17448;47.200;10.902;2023-02-28T18:03:52;29.25;;;7.93;;
30697;SDS011;17448;47.200;10.902;2023-02-28T18:06:19;11.90;;;7.78;;
30697;SDS011;17448;47.200;10.902;2023-02-28T18:08:46;11.60;;;6.15;;
30697;SDS011;17448;47.200;10.902;2023-02-28T18:11:13;10.13;;;6.80;;
30697;SDS011;17448;47.200;10.902;2023-02-28T18:13:43;12.13;;;8.10;;
30697;SDS011;17448;47.200;10.902;2023-02-28T18:16:10;11.80;;;5.35;;
30697;SDS011;17448;47.200;10.902;2023-02-28T18:18:37;10.80;;;6.22;;
30697;SDS011;17448;47.200;10.902;2023-02-28T18:21:07;10.60;;;6.35;;
30697;SDS011;17448;47.200;10.902;2023-02-28T18:23:33;9.68;;;6.57;;
30697;SDS011;17448;47.200;10.902;2023-02-28T18:26:00;11.70;;;7.15;;
30697;SDS011;17448;47.200;10.902;2023-02-28T18:28:26;17.05;;;8.10;;
30697;SDS011;17448;47.200;10.902;2023-02-28T18:30:55;13.15;;;8.43;;
30697;SDS011;17448;47.200;10.902;2023-02-28T18:33:21;18.77;;;8.32;;
30697;SDS011;17448;47.200;10.902;2023-02-28T18:35:53;12.68;;;8.02;;
30697;SDS011;17448;47.200;10.902;2023-02-28T18:38:20;12.65;;;7.97;;
30697;SDS011;17448;47.200;10.902;2023-02-28T18:40:57;15.57;;;8.63;;
30697;SDS011;17448;47.200;10.902;2023-02-28T18:43:24;14.35;;;7.50;;
30697;SDS011;17448;47.200;10.902;2023-02-28T18:45:50;15.93;;;8.82;;
30697;SDS011;17448;47.200;10.902;2023-02-28T18:48:17;17.30;;;9.30;;
30697;SDS011;17448;47.200;10.902;2023-02-28T18:50:44;15.00;;;8.52;;
30697;SDS011;17448;47.200;10.902;2023-02-28T18:53:11;14.30;;;9.55;;
30697;SDS011;17448;47.200;10.902;2023-02-28T18:55:37;16.70;;;9.57;;
30697;SDS011;17448;47.200;10.902;2023-02-28T18:58:04;14.88;;;9.40;;
30697;SDS011;17448;47.200;10.902;2023-02-28T19:00:30;15.90;;;8.70;;
30697;SDS011;17448;47.200;10.902;2023-02-28T19:02:56;14.95;;;9.02;;
30697;SDS011;17448;47.200;10.902;2023-02-28T19:05:22;13.70;;;9.20;;
30697;SDS011;17448;47.200;10.902;2023-02-28T19:07:49;18.73;;;10.13;;
30697;SDS011;17448;47.200;10.902;2023-02-28T19:10:15;18.90;;;9.77;;
30697;SDS011;17448;47.200;10.902;2023-02-28T19:12:43;19.77;;;9.48;;
30697;SDS011;17448;47.200;10.902;2023-02-28T19:15:10;17.25;;;9.85;;
30697;SDS011;17448;47.200;10.902;2023-02-28T19:17:36;14.38;;;8.85;;
30697;SDS011;17448;47.200;10.902;2023-02-28T19:20:03;15.27;;;10.05;;
30697;SDS011;17448;47.200;10.902;2023-02-28T19:22:30;17.25;;;10.25;;
30697;SDS011;17448;47.200;10.902;2023-02-28T19:24:56;15.60;;;10.18;;
30697;SDS011;17448;47.200;10.902;2023-02-28T19:27:22;16.50;;;10.75;;
30697;SDS011;17448;47.200;10.902;2023-02-28T19:29:49;17.77;;;9.27;;
30697;SDS011;17448;47.200;10.902;2023-02-28T19:32:16;20.00;;;10.32;;
30697;SDS011;17448;47.200;10.902;2023-02-28T19:34:42;17.08;;;10.85;;
30697;SDS011;17448;47.200;10.902;2023-02-28T19:37:09;18.90;;;10.88;;
30697;SDS011;17448;47.200;10.902;2023-02-28T19:39:35;17.30;;;10.77;;
30697;SDS011;17448;47.200;10.902;2023-02-28T19:42:08;17.30;;;10.20;;
30697;SDS011;17448;47.200;10.902;2023-02-28T19:44:35;18.17;;;10.10;;